Time;durP1;ratioP1;P1;durP2;ratioP2;P2;SDS_P1;SDS_P2;PMS_P1;PMS_P2;Temp;Humidity;BMP_temperature;BMP_pressure;BME280_temperature;BME280_humidity;BME280_pressure;Samples;Min_cycle;Max_cycle;Signal;HPM_P1;HPM_P2
2023/05/29 00:01:03;;;;;;;;;;;;;;;21.96;59.86;100975.94;4980900;28;20212;-82
2023/05/29 00:03:32;;;;;;;;;;;;;;;21.90;59.87;100974.06;4958801;28;20350;-84
2023/05/29 00:06:02;;;;;;;;;;;;;;;21.72;59.79;100938.66;4980869;28;19935;-84
2023/05/29 00:08:32;;;;;;;;;;;;;;;21.87;59.71;100984.44;4993689;28;19925;-84
2023/05/29 00:10:59;;;;;;;;;;;;;;;21.85;59.65;100981.13;4996198;28;19979;-84
2023/05/29 00:13:26;;;;;;;;;;;;;;;21.86;59.62;100980.09;5008928;28;20094;-83
2023/05/29 00:15:53;;;;;;;;;;;;;;;21.85;59.40;100990.06;4995968;28;19925;-83
2023/05/29 00:18:22;;;;;;;;;;;;;;;21.49;59.47;100945.22;5008037;28;20320;-83
2023/05/29 00:20:52;;;;;;;;;;;;;;;21.55;58.95;100952.53;4996966;28;20020;-83
2023/05/29 00:23:25;;;;;;;;;;;;;;;21.75;59.43;100989.59;4984454;28;19925;-84
2023/05/29 00:25:52;;;;;;;;;;;;;;;21.66;59.98;100997.03;5007305;28;20203;-83
2023/05/29 00:28:23;;;;;;;;;;;;;;;21.23;59.90;100920.72;4990904;28;20239;-83
2023/05/29 00:30:54;;;;;;;;;;;;;;;21.63;59.94;100985.81;5000447;28;19933;-84
2023/05/29 00:33:25;;;;;;;;;;;;;;;21.58;60.09;100985.53;5009489;28;20357;-83
2023/05/29 00:35:52;;;;;;;;;;;;;;;21.47;60.08;100995.88;5002750;28;20013;-83
2023/05/29 00:38:19;;;;;;;;;;;;;;;21.48;60.53;100994.88;4977576;28;19932;-83
2023/05/29 00:40:47;;;;;;;;;;;;;;;21.28;61.21;100988.47;4999566;28;19924;-82
2023/05/29 00:43:14;;;;;;;;;;;;;;;21.26;61.68;100993.22;5005746;28;19965;-82
2023/05/29 00:45:42;;;;;;;;;;;;;;;20.90;62.11;100948.34;5000141;28;19932;-82
2023/05/29 00:48:08;;;;;;;;;;;;;;;21.16;62.12;100990.03;5006392;28;19933;-82
2023/05/29 00:50:35;;;;;;;;;;;;;;;21.18;62.42;100994.22;4985271;28;20256;-82
2023/05/29 00:53:04;;;;;;;;;;;;;;;21.19;62.50;100995.03;5006652;28;20412;-83
2023/05/29 00:55:31;;;;;;;;;;;;;;;21.20;62.78;100997.56;4988556;28;20495;-83
2023/05/29 00:57:58;;;;;;;;;;;;;;;21.23;62.74;101001.72;5000739;28;20172;-83
2023/05/29 01:00:26;;;;;;;;;;;;;;;21.26;62.70;100998.63;4995773;28;20287;-82
2023/05/29 01:02:53;;;;;;;;;;;;;;;21.24;63.02;100997.97;4997334;28;20286;-83
2023/05/29 01:05:23;;;;;;;;;;;;;;;21.25;63.13;101000.50;4990263;28;19995;-83
2023/05/29 01:07:53;;;;;;;;;;;;;;;21.27;63.12;101003.84;5005003;28;19991;-82
2023/05/29 01:10:22;;;;;;;;;;;;;;;21.25;63.19;100995.09;5005932;28;19933;-83
2023/05/29 01:12:51;;;;;;;;;;;;;;;21.27;62.85;101003.84;5007856;28;20552;-82
2023/05/29 01:15:20;;;;;;;;;;;;;;;21.35;62.48;101005.53;4969763;28;20126;-83
2023/05/29 01:17:47;;;;;;;;;;;;;;;21.29;63.27;101009.03;5003001;28;19929;-83
2023/05/29 01:20:16;;;;;;;;;;;;;;;21.26;63.42;101001.31;5004621;28;20238;-83
2023/05/29 01:23:07;;;;;;;;;;;;;;;21.26;63.32;100998.63;4982220;28;20282;-83
2023/05/29 01:25:52;;;;;;;;;;;;;;;21.25;63.41;100995.09;4990403;28;19925;-83
2023/05/29 01:28:21;;;;;;;;;;;;;;;21.26;63.47;100996.78;5011674;28;19984;-83
2023/05/29 01:30:49;;;;;;;;;;;;;;;21.21;63.51;101001.06;5003293;28;20072;-83
2023/05/29 01:33:22;;;;;;;;;;;;;;;20.91;63.21;100950.00;5007547;28;20251;-83
2023/05/29 01:35:49;;;;;;;;;;;;;;;21.21;63.40;101001.06;5013527;28;20283;-83
2023/05/29 01:38:16;;;;;;;;;;;;;;;21.21;63.24;101009.19;4994442;28;20215;-83
2023/05/29 01:40:43;;;;;;;;;;;;;;;21.29;62.86;101001.78;4998699;28;19929;-83
2023/05/29 01:43:09;;;;;;;;;;;;;;;21.53;61.72;101003.22;4985687;28;20119;-83
2023/05/29 01:45:36;;;;;;;;;;;;;;;21.65;60.91;100984.56;4993646;28;20268;-83
2023/05/29 01:48:03;;;;;;;;;;;;;;;21.68;60.74;100978.75;5006256;28;20357;-83
2023/05/29 01:50:31;;;;;;;;;;;;;;;21.55;61.55;100979.53;4984702;28;19925;-83
2023/05/29 01:52:57;;;;;;;;;;;;;;;21.36;62.57;100982.94;4976621;28;20404;-83
2023/05/29 01:55:24;;;;;;;;;;;;;;;21.22;62.84;100983.88;4998515;28;20040;-83
2023/05/29 01:57:51;;;;;;;;;;;;;;;21.13;63.38;100981.28;4993511;28;19929;-82
2023/05/29 02:00:18;;;;;;;;;;;;;;;21.13;63.30;100981.28;4974857;28;20130;-82
2023/05/29 02:02:45;;;;;;;;;;;;;;;21.13;63.01;100981.28;4988045;28;19929;-82
2023/05/29 02:05:13;;;;;;;;;;;;;;;21.13;62.75;100981.28;4986435;28;19948;-83
2023/05/29 02:07:40;;;;;;;;;;;;;;;21.12;62.87;100976.94;5015075;28;20552;-82
2023/05/29 02:10:07;;;;;;;;;;;;;;;21.15;62.02;100975.72;4996558;28;20347;-82
2023/05/29 02:12:34;;;;;;;;;;;;;;;21.16;61.73;100969.25;4980995;28;20272;-84
2023/05/29 02:15:00;;;;;;;;;;;;;;;21.12;61.90;100971.53;5002821;28;19933;-84
2023/05/29 02:17:27;;;;;;;;;;;;;;;21.11;61.48;100964.47;4975227;28;20360;-83
2023/05/29 02:19:54;;;;;;;;;;;;;;;21.07;61.61;100976.69;4974938;28;20390;-84
2023/05/29 02:22:20;;;;;;;;;;;;;;;21.09;61.55;100969.25;4978319;28;20729;-84
2023/05/29 02:24:51;;;;;;;;;;;;;;;21.07;61.40;100963.19;5004767;28;20010;-84
2023/05/29 02:27:20;;;;;;;;;;;;;;;21.06;61.16;100964.22;4986401;28;19926;-84
2023/05/29 02:29:46;;;;;;;;;;;;;;;21.04;61.39;100960.88;4992974;28;19940;-82
2023/05/29 02:32:13;;;;;;;;;;;;;;;20.97;61.68;100957.31;5006895;28;19940;-85
2023/05/29 02:34:40;;;;;;;;;;;;;;;20.98;61.48;100961.69;4982371;28;19925;-81
2023/05/29 02:37:06;;;;;;;;;;;;;;;20.97;61.38;100960.03;4974278;28;20195;-82
2023/05/29 02:39:33;;;;;;;;;;;;;;;20.96;61.52;100955.63;4992411;28;20369;-82
2023/05/29 02:42:00;;;;;;;;;;;;;;;20.92;61.56;100954.34;4991146;28;19925;-81
2023/05/29 02:44:27;;;;;;;;;;;;;;;20.94;61.39;100952.28;4994952;28;19932;-83
2023/05/29 02:46:54;;;;;;;;;;;;;;;20.97;61.27;100954.63;4986075;28;20248;-82
2023/05/29 02:49:20;;;;;;;;;;;;;;;20.61;61.79;100901.63;4996353;28;20016;-81
2023/05/29 02:51:47;;;;;;;;;;;;;;;21.04;61.21;100949.25;4976710;28;19925;-83
2023/05/29 02:54:14;;;;;;;;;;;;;;;21.18;60.40;100950.19;4997628;28;19976;-83
2023/05/29 02:56:41;;;;;;;;;;;;;;;21.22;60.19;100946.06;4984910;28;20242;-84
2023/05/29 02:59:10;;;;;;;;;;;;;;;21.19;60.82;100951.84;4984980;28;20385;-84
2023/05/29 03:01:47;;;;;;;;;;;;;;;21.20;60.23;100948.13;4995739;28;19995;-84
2023/05/29 03:04:14;;;;;;;;;;;;;;;21.16;60.54;100944.16;4994444;28;20052;-84
2023/05/29 03:06:41;;;;;;;;;;;;;;;21.18;61.43;100944.78;4981430;28;19925;-83
2023/05/29 03:09:12;;;;;;;;;;;;;;;21.16;61.60;100949.53;4998353;28;20378;-82
2023/05/29 03:11:47;;;;;;;;;;;;;;;20.68;62.14;100899.81;4987245;28;19933;-82
2023/05/29 03:14:21;;;;;;;;;;;;;;;20.89;62.50;100952.06;4981828;28;19961;-83
2023/05/29 03:16:50;;;;;;;;;;;;;;;20.84;62.81;100949.09;4984297;28;20188;-83
2023/05/29 03:19:20;;;;;;;;;;;;;;;20.74;62.58;100951.31;4990286;28;20082;-83
2023/05/29 03:21:50;;;;;;;;;;;;;;;20.69;62.86;100949.19;4964128;28;19968;-82
2023/05/29 03:24:17;;;;;;;;;;;;;;;20.65;62.81;100948.72;4972003;28;19925;-83
2023/05/29 03:26:44;;;;;;;;;;;;;;;20.62;62.83;100951.81;4981346;28;20334;-83
2023/05/29 03:29:10;;;;;;;;;;;;;;;20.57;62.81;100958.84;4985326;28;20145;-83
2023/05/29 03:31:37;;;;;;;;;;;;;;;20.20;63.14;100899.56;4989683;28;19956;-83
2023/05/29 03:34:04;;;;;;;;;;;;;;;20.51;63.32;100960.44;4987326;28;20209;-83
2023/05/29 03:36:31;;;;;;;;;;;;;;;20.50;63.01;100954.19;4991872;28;19933;-83
2023/05/29 03:38:58;;;;;;;;;;;;;;;20.47;62.88;100948.34;4985321;28;19925;-83
2023/05/29 03:41:25;;;;;;;;;;;;;;;20.45;63.06;100953.09;4992048;28;19929;-84
2023/05/29 03:43:55;;;;;;;;;;;;;;;20.49;62.93;100957.91;4971691;28;20401;-82
2023/05/29 03:46:40;;;;;;;;;;;;;;;20.44;63.24;100965.75;4974533;28;19926;-82
2023/05/29 03:49:10;;;;;;;;;;;;;;;20.41;63.64;100954.50;4978869;28;19952;-83
2023/05/29 03:51:37;;;;;;;;;;;;;;;20.41;63.47;100962.59;4979325;28;20568;-83
2023/05/29 03:54:03;;;;;;;;;;;;;;;20.39;63.42;100961.94;4984408;28;19973;-83
2023/05/29 03:56:30;;;;;;;;;;;;;;;20.39;63.50;100968.19;4949440;28;20390;-83
2023/05/29 03:59:00;;;;;;;;;;;;;;;20.38;63.69;100971.06;4976017;28;20011;-83
2023/05/29 04:01:37;;;;;;;;;;;;;;;20.40;63.78;100974.41;4974239;28;19982;-84
2023/05/29 04:04:06;;;;;;;;;;;;;;;20.42;63.82;100978.59;4965036;28;19925;-83
2023/05/29 04:06:40;;;;;;;;;;;;;;;20.46;64.02;100981.72;4945029;28;20206;-82
2023/05/29 04:09:09;;;;;;;;;;;;;;;20.50;63.68;100985.72;4967352;28;19929;-83
2023/05/29 04:11:35;;;;;;;;;;;;;;;20.22;63.30;100939.78;4987341;28;19925;-82
2023/05/29 04:14:02;;;;;;;;;;;;;;;20.54;63.05;100992.41;4955633;28;20159;-82
2023/05/29 04:16:31;;;;;;;;;;;;;;;20.05;62.69;100923.88;4977373;28;20297;-82
2023/05/29 04:19:00;;;;;;;;;;;;;;;20.58;62.28;100988.28;4961736;28;20367;-82
2023/05/29 04:21:27;;;;;;;;;;;;;;;20.61;62.23;101004.13;4943764;28;20307;-82
2023/05/29 04:23:54;;;;;;;;;;;;;;;20.58;62.00;101003.66;4949778;28;19936;-82
2023/05/29 04:26:24;;;;;;;;;;;;;;;20.56;62.21;101005.69;4999114;28;19925;-82
2023/05/29 04:28:57;;;;;;;;;;;;;;;20.59;61.61;101011.56;4996739;28;19925;-82
2023/05/29 04:31:29;;;;;;;;;;;;;;;20.63;61.40;101012.84;4994632;28;19925;-84
2023/05/29 04:34:24;;;;;;;;;;;;;;;20.61;62.01;101014.91;4991959;28;20184;-82
2023/05/29 04:36:54;;;;;;;;;;;;;;;20.58;61.85;101020.66;4997452;28;20460;-84
2023/05/29 04:39:22;;;;;;;;;;;;;;;20.64;61.79;101030.69;4999834;28;19937;-83
2023/05/29 04:41:51;;;;;;;;;;;;;;;20.68;61.76;101026.59;4961261;28;19936;-83
2023/05/29 04:44:20;;;;;;;;;;;;;;;20.73;61.90;101027.88;4938682;28;19925;-83
2023/05/29 04:46:57;;;;;;;;;;;;;;;20.77;61.52;101029.97;4953534;28;19925;-83
2023/05/29 04:49:24;;;;;;;;;;;;;;;20.85;61.36;101043.38;4974703;28;19925;-82
2023/05/29 04:51:54;;;;;;;;;;;;;;;20.90;60.74;101038.22;4994815;28;20134;-83
2023/05/29 04:54:27;;;;;;;;;;;;;;;20.66;60.28;100990.88;4973441;28;19968;-82
2023/05/29 04:57:00;;;;;;;;;;;;;;;20.91;61.12;101036.34;4969683;28;20305;-83
2023/05/29 04:59:28;;;;;;;;;;;;;;;20.91;61.00;101041.75;4949684;28;19996;-83
2023/05/29 05:01:54;;;;;;;;;;;;;;;20.63;60.74;100985.88;4994925;28;19968;-84
2023/05/29 05:04:21;;;;;;;;;;;;;;;20.93;60.89;101039.69;4968518;28;20176;-83
2023/05/29 05:06:51;;;;;;;;;;;;;;;20.95;61.27;101036.78;4963546;28;19981;-83
2023/05/29 05:09:23;;;;;;;;;;;;;;;20.63;61.60;100993.97;4969695;28;20607;-83
2023/05/29 05:14:53;;;;;;;;;;;;;;;20.80;60.90;100991.84;4955837;28;19976;-84
2023/05/29 05:17:25;;;;;;;;;;;;;;;21.10;60.91;101046.47;4963492;28;20463;-84
2023/05/29 05:19:53;;;;;;;;;;;;;;;20.83;61.30;100996.84;4943745;28;19930;-83
2023/05/29 05:22:20;;;;;;;;;;;;;;;21.16;60.61;101039.47;4980119;28;19936;-84
2023/05/29 05:24:49;;;;;;;;;;;;;;;20.79;61.45;101000.13;4993099;28;20304;-83
2023/05/29 05:27:22;;;;;;;;;;;;;;;21.15;60.60;101037.81;5007406;28;20073;-83
2023/05/29 05:29:49;;;;;;;;;;;;;;;21.12;60.44;101039.03;5007643;28;19933;-83
2023/05/29 05:32:16;;;;;;;;;;;;;;;21.13;60.09;101037.16;4987942;28;20151;-82
2023/05/29 05:34:43;;;;;;;;;;;;;;;21.19;60.21;101039.09;4978234;28;19925;-83
2023/05/29 05:37:09;;;;;;;;;;;;;;;21.25;59.95;101043.69;4989962;28;19929;-82
2023/05/29 05:39:37;;;;;;;;;;;;;;;21.13;60.33;101039.84;4992239;28;19925;-82
2023/05/29 05:42:07;;;;;;;;;;;;;;;21.15;60.42;101054.00;4988494;28;19925;-83
2023/05/29 05:44:34;;;;;;;;;;;;;;;21.22;59.85;101037.88;5001934;28;19925;-84
2023/05/29 05:47:01;;;;;;;;;;;;;;;21.31;59.56;101036.66;5007489;28;20028;-83
2023/05/29 05:49:28;;;;;;;;;;;;;;;21.29;59.72;101033.34;4993320;28;20181;-83
2023/05/29 05:51:57;;;;;;;;;;;;;;;21.25;60.18;101037.47;4997872;28;19925;-83
2023/05/29 05:54:24;;;;;;;;;;;;;;;21.24;60.35;101049.28;4988877;28;19925;-84
2023/05/29 05:56:51;;;;;;;;;;;;;;;21.38;59.82;101048.34;4980552;28;20102;-84
2023/05/29 05:59:18;;;;;;;;;;;;;;;21.39;59.62;101044.66;4974095;28;19929;-83
2023/05/29 06:01:47;;;;;;;;;;;;;;;21.10;59.31;101006.00;4964796;28;20745;-82
2023/05/29 06:04:18;;;;;;;;;;;;;;;20.95;59.52;100993.59;4988364;28;20049;-83
2023/05/29 06:06:47;;;;;;;;;;;;;;;21.34;59.72;101058.72;4980174;28;19925;-83
2023/05/29 06:09:14;;;;;;;;;;;;;;;21.28;60.14;101061.38;4998642;28;20286;-84
2023/05/29 06:11:41;;;;;;;;;;;;;;;21.35;60.07;101062.25;4960820;28;20215;-84
2023/05/29 06:14:11;;;;;;;;;;;;;;;21.54;58.78;101063.47;4947337;28;20180;-84
2023/05/29 06:16:38;;;;;;;;;;;;;;;21.48;59.54;101054.28;4974717;28;19925;-84
2023/05/29 06:19:05;;;;;;;;;;;;;;;21.48;59.43;101058.84;4972192;28;20579;-84
2023/05/29 06:21:32;;;;;;;;;;;;;;;21.40;59.91;101054.41;5005542;28;20020;-84
2023/05/29 06:23:59;;;;;;;;;;;;;;;21.40;60.35;101053.59;4955718;28;19929;-83
2023/05/29 06:26:33;;;;;;;;;;;;;;;21.39;60.50;101052.75;4949706;28;20019;-82
2023/05/29 06:29:00;;;;;;;;;;;;;;;21.49;60.11;101055.94;4955279;28;19933;-84
2023/05/29 06:31:28;;;;;;;;;;;;;;;21.59;60.08;101054.78;4976822;28;19931;-84
2023/05/29 06:33:57;;;;;;;;;;;;;;;21.60;60.12;101051.03;4977690;28;19937;-83
2023/05/29 06:36:32;;;;;;;;;;;;;;;21.70;60.05;101046.94;4976295;28;19972;-84
2023/05/29 06:39:02;;;;;;;;;;;;;;;21.71;60.16;101048.59;4976672;28;20077;-82
2023/05/29 06:41:28;;;;;;;;;;;;;;;21.74;59.66;101041.97;4976555;28;19925;-84
2023/05/29 06:43:55;;;;;;;;;;;;;;;21.73;59.94;101051.13;4972606;28;19980;-84
2023/05/29 06:46:24;;;;;;;;;;;;;;;21.63;59.25;101007.44;4970084;28;19953;-83
2023/05/29 06:48:55;;;;;;;;;;;;;;;21.71;58.93;101005.38;4968838;28;20401;-83
2023/05/29 06:51:32;;;;;;;;;;;;;;;22.05;58.73;101052.31;4967245;28;20400;-83
2023/05/29 06:54:01;;;;;;;;;;;;;;;22.00;58.89;101054.78;4964839;28;20016;-84
2023/05/29 06:56:30;;;;;;;;;;;;;;;21.97;59.41;101052.50;4994899;28;20324;-83
2023/05/29 06:58:57;;;;;;;;;;;;;;;22.00;59.81;101052.09;4980497;28;20272;-82
2023/05/29 07:01:23;;;;;;;;;;;;;;;21.89;59.96;101039.97;4947239;28;20193;-83
2023/05/29 07:03:56;;;;;;;;;;;;;;;21.97;59.67;101064.13;4974455;28;19934;-84
2023/05/29 07:06:23;;;;;;;;;;;;;;;21.98;59.73;101054.16;4960153;28;20142;-84
2023/05/29 07:08:58;;;;;;;;;;;;;;;21.83;60.07;101013.75;4963419;28;19926;-83
2023/05/29 07:11:34;;;;;;;;;;;;;;;22.19;59.60;101064.84;4973757;28;20017;-84
2023/05/29 07:14:00;;;;;;;;;;;;;;;22.24;60.37;101066.16;4937310;28;20021;-84
2023/05/29 07:16:27;;;;;;;;;;;;;;;22.19;60.89;101061.31;4965410;28;19925;-84
2023/05/29 07:18:54;;;;;;;;;;;;;;;22.30;60.09;101068.03;4974681;28;20321;-84
2023/05/29 07:21:21;;;;;;;;;;;;;;;22.28;60.02;101060.16;4965447;28;19948;-84
2023/05/29 07:23:48;;;;;;;;;;;;;;;22.34;60.25;101064.72;5013160;28;19925;-84
2023/05/29 07:26:18;;;;;;;;;;;;;;;22.36;60.51;101068.06;5006476;28;19925;-82
2023/05/29 07:28:44;;;;;;;;;;;;;;;22.40;60.29;101065.78;4956288;28;20356;-81
2023/05/29 07:31:16;;;;;;;;;;;;;;;22.49;60.61;101071.84;4975913;28;19929;-81
2023/05/29 07:33:45;;;;;;;;;;;;;;;22.50;60.34;101068.09;4952713;28;20109;-82
2023/05/29 07:36:31;;;;;;;;;;;;;;;22.57;60.17;101063.53;4986446;28;19964;-82
2023/05/29 07:39:01;;;;;;;;;;;;;;;22.65;60.88;101060.66;4983336;28;20402;-82
2023/05/29 07:41:27;;;;;;;;;;;;;;;22.65;60.38;101066.09;4978264;28;20000;-82
2023/05/29 07:43:55;;;;;;;;;;;;;;;22.72;60.10;101064.22;4984999;28;19961;-82
2023/05/29 07:46:22;;;;;;;;;;;;;;;22.89;59.45;101061.09;4984306;28;19941;-82
2023/05/29 07:48:49;;;;;;;;;;;;;;;22.87;59.39;101069.44;4986793;28;19931;-82
2023/05/29 07:51:19;;;;;;;;;;;;;;;22.98;59.29;101074.25;5005078;28;19925;-81
2023/05/29 07:53:49;;;;;;;;;;;;;;;23.09;59.29;101078.25;5018827;28;19925;-82
2023/05/29 07:56:16;;;;;;;;;;;;;;;23.06;59.40;101067.84;4989770;28;19956;-84
2023/05/29 07:58:43;;;;;;;;;;;;;;;23.10;59.82;101069.06;4990367;28;19975;-84
2023/05/29 08:01:10;;;;;;;;;;;;;;;23.04;59.32;101069.91;5021114;28;20012;-82
2023/05/29 08:03:37;;;;;;;;;;;;;;;23.21;59.13;101073.03;4994361;28;20155;-83
2023/05/29 08:06:05;;;;;;;;;;;;;;;23.15;60.50;101071.97;5019754;28;19925;-83
2023/05/29 08:08:32;;;;;;;;;;;;;;;23.27;59.93;101068.66;5002540;28;19933;-85
2023/05/29 08:10:59;;;;;;;;;;;;;;;23.31;59.49;101076.16;5010143;28;20293;-85
2023/05/29 08:13:28;;;;;;;;;;;;;;;23.44;59.62;101075.31;4971680;28;19925;-83
2023/05/29 08:16:00;;;;;;;;;;;;;;;23.58;59.06;101068.84;4980473;28;19944;-83
2023/05/29 08:18:30;;;;;;;;;;;;;;;23.51;59.68;101065.31;4987665;28;19937;-85
2023/05/29 08:20:57;;;;;;;;;;;;;;;23.62;59.26;101072.81;5018187;28;19929;-85
2023/05/29 08:23:26;;;;;;;;;;;;;;;23.72;57.90;101066.94;5010964;28;19983;-85
2023/05/29 08:25:53;;;;;;;;;;;;;;;23.66;58.64;101065.88;5010101;28;20409;-85
2023/05/29 08:28:22;;;;;;;;;;;;;;;23.67;58.01;101073.00;4995761;28;20326;-85
2023/05/29 08:30:50;;;;;;;;;;;;;;;23.67;58.42;101067.56;5017397;28;20422;-84
2023/05/29 08:33:17;;;;;;;;;;;;;;;24.00;56.96;101073.97;5016538;28;20018;-85
2023/05/29 08:35:43;;;;;;;;;;;;;;;23.86;57.87;101071.31;4999823;28;19925;-85
2023/05/29 08:38:13;;;;;;;;;;;;;;;23.62;57.92;101023.19;4998080;28;19925;-85
2023/05/29 08:41:00;;;;;;;;;;;;;;;23.90;57.23;101074.41;4971482;28;19926;-85
2023/05/29 08:43:31;;;;;;;;;;;;;;;24.13;56.05;101075.78;4976359;28;20164;-85
2023/05/29 08:46:02;;;;;;;;;;;;;;;24.07;55.75;101081.03;4964669;28;19929;-85
2023/05/29 08:48:33;;;;;;;;;;;;;;;24.24;55.62;101075.13;4981929;28;20299;-84
2023/05/29 08:51:05;;;;;;;;;;;;;;;24.38;54.86;101070.50;4973712;28;19937;-85
2023/05/29 08:53:32;;;;;;;;;;;;;;;24.32;54.24;101066.75;4987573;28;20654;-86
2023/05/29 08:56:01;;;;;;;;;;;;;;;24.34;55.12;101066.53;4993926;28;19979;-85
2023/05/29 08:58:31;;;;;;;;;;;;;;;24.42;55.94;101067.13;4995633;28;19977;-84
2023/05/29 09:00:58;;;;;;;;;;;;;;;24.49;54.54;101070.69;5014511;28;19995;-85
2023/05/29 09:03:25;;;;;;;;;;;;;;;24.55;55.47;101070.84;4983450;28;20338;-86
2023/05/29 09:05:58;;;;;;;;;;;;;;;24.61;54.92;101080.81;4985691;28;20287;-86
2023/05/29 09:08:28;;;;;;;;;;;;;;;24.55;54.70;101076.28;4950780;28;19929;-85
2023/05/29 09:10:58;;;;;;;;;;;;;;;24.59;54.87;101077.50;4972417;28;19931;-86
2023/05/29 09:13:25;;;;;;;;;;;;;;;24.70;54.27;101074.91;4988745;28;19929;-85
2023/05/29 09:15:57;;;;;;;;;;;;;;;24.72;54.82;101048.38;4993872;28;20346;-85
2023/05/29 09:18:23;;;;;;;;;;;;;;;25.09;54.71;101075.69;4998308;28;20459;-86
2023/05/29 09:20:52;;;;;;;;;;;;;;;25.11;54.38;101080.91;4977642;28;20463;-85
2023/05/29 09:23:21;;;;;;;;;;;;;;;25.12;53.47;101082.56;4990406;28;19925;-85
2023/05/29 09:25:55;;;;;;;;;;;;;;;25.17;52.83;101090.91;4971544;28;20043;-85
2023/05/29 09:28:23;;;;;;;;;;;;;;;25.32;52.36;101082.44;4969008;28;19933;-85
2023/05/29 09:30:50;;;;;;;;;;;;;;;25.32;52.28;101080.56;4970128;28;20326;-88
2023/05/29 09:33:20;;;;;;;;;;;;;;;25.29;52.43;101083.72;4972936;28;20585;-85
2023/05/29 09:35:54;;;;;;;;;;;;;;;25.39;52.97;101083.22;4984060;28;20389;-85
2023/05/29 09:38:23;;;;;;;;;;;;;;;25.49;52.05;101085.44;4996086;28;19983;-86
2023/05/29 09:41:11;;;;;;;;;;;;;;;25.73;51.19;101090.00;4978240;28;20035;-85
2023/05/29 09:43:39;;;;;;;;;;;;;;;25.77;51.10;101085.75;4994554;28;20355;-84
2023/05/29 09:46:12;;;;;;;;;;;;;;;25.76;49.15;101084.09;5000023;28;19925;-84
2023/05/29 09:48:41;;;;;;;;;;;;;;;25.85;49.71;101081.94;4978357;28;19984;-84
2023/05/29 09:51:21;;;;;;;;;;;;;;;25.98;50.53;101086.41;4993287;28;20258;-85
2023/05/29 09:53:50;;;;;;;;;;;;;;;26.07;49.46;101089.66;4992178;28;19986;-84
2023/05/29 09:56:18;;;;;;;;;;;;;;;25.71;47.61;101042.34;4988912;28;19975;-85
2023/05/29 09:58:56;;;;;;;;;;;;;;;25.95;47.42;101092.31;4984670;28;20465;-84
2023/05/29 10:01:24;;;;;;;;;;;;;;;25.79;48.81;101045.56;5010606;28;20436;-84
2023/05/29 10:03:51;;;;;;;;;;;;;;;26.13;49.59;101089.56;5009817;28;20411;-85
2023/05/29 10:06:21;;;;;;;;;;;;;;;26.09;47.02;101033.94;4982553;28;20300;-84
2023/05/29 10:08:52;;;;;;;;;;;;;;;26.54;47.03;101077.13;4992816;28;19948;-85
2023/05/29 10:11:24;;;;;;;;;;;;;;;26.76;43.98;101074.72;5013663;28;19925;-85
2023/05/29 10:13:51;;;;;;;;;;;;;;;26.92;45.92;101075.97;4987123;28;20202;-86
2023/05/29 10:16:22;;;;;;;;;;;;;;;27.01;44.25;101080.00;4972601;28;20085;-84
2023/05/29 10:19:01;;;;;;;;;;;;;;;27.21;44.86;101071.53;4955025;28;19929;-84
2023/05/29 10:21:33;;;;;;;;;;;;;;;27.45;44.63;101075.13;4977771;28;20104;-84
2023/05/29 10:24:10;;;;;;;;;;;;;;;27.31;44.82;101038.25;4965056;28;19932;-83
2023/05/29 10:26:43;;;;;;;;;;;;;;;27.70;44.46;101076.75;4980016;28;19939;-85
2023/05/29 10:29:24;;;;;;;;;;;;;;;27.55;43.91;101070.94;4990665;28;20019;-85
2023/05/29 10:31:53;;;;;;;;;;;;;;;26.89;44.48;100983.78;4972739;28;20550;-85
2023/05/29 10:34:30;;;;;;;;;;;;;;;27.48;42.51;101065.63;4958279;28;20746;-84
2023/05/29 10:37:09;;;;;;;;;;;;;;;27.60;43.37;101068.31;4992879;28;19925;-85
2023/05/29 10:39:36;;;;;;;;;;;;;;;27.68;43.62;101067.97;4991752;28;20280;-85
2023/05/29 10:42:22;;;;;;;;;;;;;;;27.79;43.10;101063.56;4975465;28;19925;-85
2023/05/29 10:44:51;;;;;;;;;;;;;;;27.78;43.40;101027.28;5004124;28;19925;-85
2023/05/29 10:47:24;;;;;;;;;;;;;;;28.04;43.58;101050.50;4975879;28;20168;-86
2023/05/29 10:49:54;;;;;;;;;;;;;;;28.19;42.04;101052.72;4956245;28;19925;-85
2023/05/29 10:52:23;;;;;;;;;;;;;;;28.22;41.39;101049.47;4999884;28;19933;-85
2023/05/29 10:54:53;;;;;;;;;;;;;;;28.42;42.49;101045.47;4971722;28;20292;-85
2023/05/29 10:57:22;;;;;;;;;;;;;;;28.64;42.76;101042.91;5003369;28;19925;-84
2023/05/29 11:00:04;;;;;;;;;;;;;;;28.46;42.10;100994.81;5006801;28;19991;-84
2023/05/29 11:02:38;;;;;;;;;;;;;;;29.00;42.38;101047.09;5015743;28;20550;-84
2023/05/29 11:05:23;;;;;;;;;;;;;;;28.96;41.89;101046.75;5012443;28;20110;-83
2023/05/29 11:07:54;;;;;;;;;;;;;;;28.77;41.06;101043.44;5017495;28;19929;-84
2023/05/29 11:10:39;;;;;;;;;;;;;;;28.51;40.79;100986.72;4997077;28;19968;-83
2023/05/29 11:13:07;;;;;;;;;;;;;;;28.76;40.31;101036.31;5009331;28;19929;-83
2023/05/29 11:15:34;;;;;;;;;;;;;;;29.05;39.84;101038.97;5004110;28;19960;-83
2023/05/29 11:18:07;;;;;;;;;;;;;;;28.91;39.96;101026.69;5004696;28;20017;-83
2023/05/29 11:20:43;;;;;;;;;;;;;;;28.75;40.50;101031.91;5007198;28;20470;-84
2023/05/29 11:23:17;;;;;;;;;;;;;;;28.43;41.42;100987.91;5010074;28;19925;-83
2023/05/29 11:25:44;;;;;;;;;;;;;;;28.46;40.85;101024.84;5022178;28;19925;-84
2023/05/29 11:28:11;;;;;;;;;;;;;;;28.65;40.12;101023.56;5015158;28;20523;-85
2023/05/29 11:30:48;;;;;;;;;;;;;;;28.54;40.25;101022.53;5010082;28;20250;-84
2023/05/29 11:33:21;;;;;;;;;;;;;;;28.45;40.77;101023.16;5006977;28;20246;-81
2023/05/29 11:36:08;;;;;;;;;;;;;;;28.64;40.41;101021.88;4979711;28;19940;-84
2023/05/29 11:38:35;;;;;;;;;;;;;;;28.92;39.49;101010.06;4968217;28;19932;-84
2023/05/29 11:41:03;;;;;;;;;;;;;;;29.04;39.57;101023.66;4996634;28;19929;-84
2023/05/29 11:43:30;;;;;;;;;;;;;;;28.94;38.68;100987.97;5016144;28;20005;-83
2023/05/29 11:46:00;;;;;;;;;;;;;;;29.29;38.52;101014.22;4999924;28;19956;-84
2023/05/29 11:48:48;;;;;;;;;;;;;;;29.66;38.80;101016.34;5007132;28;19960;-84
2023/05/29 11:51:15;;;;;;;;;;;;;;;29.90;37.21;101012.31;5011841;28;19929;-84
2023/05/29 11:53:43;;;;;;;;;;;;;;;30.10;37.39;101006.25;5009217;28;19925;-84
2023/05/29 11:56:10;;;;;;;;;;;;;;;30.32;36.62;101008.13;5018322;28;19940;-86
2023/05/29 11:58:39;;;;;;;;;;;;;;;30.30;36.30;101015.81;5005128;28;19925;-84
2023/05/29 12:01:07;;;;;;;;;;;;;;;30.22;36.60;101008.84;5010169;28;19932;-84
2023/05/29 12:03:39;;;;;;;;;;;;;;;30.13;37.15;101005.75;4965323;28;19983;-85
2023/05/29 12:06:07;;;;;;;;;;;;;;;30.40;37.70;101008.50;4963641;28;19936;-84
2023/05/29 12:08:52;;;;;;;;;;;;;;;30.47;37.20;101002.03;4958015;28;20296;-84
2023/05/29 12:11:26;;;;;;;;;;;;;;;30.52;37.04;101007.53;4949041;28;19925;-84
2023/05/29 12:14:05;;;;;;;;;;;;;;;30.37;36.28;100962.47;4954011;28;20318;-84
2023/05/29 12:16:42;;;;;;;;;;;;;;;30.82;36.24;100991.34;4950591;28;20370;-83
2023/05/29 12:19:21;;;;;;;;;;;;;;;31.21;35.53;100991.09;4965122;28;19952;-83
2023/05/29 12:21:58;;;;;;;;;;;;;;;31.14;34.06;100952.09;4952795;28;19929;-85
2023/05/29 12:24:25;;;;;;;;;;;;;;;31.42;34.49;100989.34;5015002;28;20507;-84
2023/05/29 12:27:07;;;;;;;;;;;;;;;31.48;35.30;100992.91;4991332;28;20479;-84
2023/05/29 12:29:34;;;;;;;;;;;;;;;31.52;34.50;100980.31;5001827;28;19952;-84
2023/05/29 12:32:01;;;;;;;;;;;;;;;31.75;35.31;100983.69;4986772;28;20282;-84
2023/05/29 12:34:34;;;;;;;;;;;;;;;32.03;34.34;100980.53;4972315;28;19932;-84
2023/05/29 12:37:06;;;;;;;;;;;;;;;32.24;33.05;100977.84;4988958;28;19925;-83
2023/05/29 12:39:38;;;;;;;;;;;;;;;32.35;33.25;100974.81;4965353;28;19928;-84
2023/05/29 12:42:10;;;;;;;;;;;;;;;32.52;33.73;100971.84;4968930;28;19925;-85
2023/05/29 12:44:45;;;;;;;;;;;;;;;32.56;32.61;100964.69;4944476;28;20003;-84
2023/05/29 12:47:25;;;;;;;;;;;;;;;32.37;32.60;100922.34;4940881;28;20309;-84
2023/05/29 12:49:58;;;;;;;;;;;;;;;32.85;32.50;100961.38;4951415;28;20597;-84
2023/05/29 12:52:31;;;;;;;;;;;;;;;32.88;31.85;100963.56;4972492;28;20274;-85